Time;durP1;ratioP1;P1;durP2;ratioP2;P2;SDS_P1;SDS_P2;PMS_P1;PMS_P2;Temp;Humidity;BMP_temperature;BMP_pressure;BME280_temperature;BME280_humidity;BME280_pressure;Samples;Min_cycle;Max_cycle;Signal;HPM_P1;HPM_P2
2022/06/06 00:01:22;;;;;;;4.43;2.38;;;18.20;99.90;;;;;;5114659;28;20027;-75
2022/06/06 00:03:49;;;;;;;3.92;2.58;;;18.20;99.90;;;;;;5114701;28;20062;-75
2022/06/06 00:06:20;;;;;;;4.78;2.70;;;18.30;99.90;;;;;;5114241;28;20031;-75
2022/06/06 00:08:46;;;;;;;6.00;2.83;;;18.30;99.90;;;;;;5133154;28;20483;-75
2022/06/06 00:11:12;;;;;;;2.78;2.50;;;18.40;99.90;;;;;;5114549;28;20416;-75
2022/06/06 00:13:41;;;;;;;4.97;2.90;;;18.40;99.90;;;;;;5132172;28;20043;-75
2022/06/06 00:16:08;;;;;;;3.40;2.55;;;18.40;99.90;;;;;;5132852;28;20101;-75
2022/06/06 00:18:35;;;;;;;6.57;2.63;;;18.40;99.90;;;;;;5113642;28;20388;-75
2022/06/06 00:21:01;;;;;;;4.38;2.40;;;18.40;99.90;;;;;;5114460;28;20172;-75
2022/06/06 00:23:27;;;;;;;3.90;2.42;;;18.50;99.90;;;;;;5113651;28;20027;-75
2022/06/06 00:25:54;;;;;;;3.90;2.63;;;18.50;99.90;;;;;;5132890;28;20034;-74
2022/06/06 00:28:21;;;;;;;4.10;3.05;;;18.50;99.90;;;;;;5132219;28;20076;-76
2022/06/06 00:30:46;;;;;;;9.32;3.05;;;18.50;99.90;;;;;;5132881;28;20098;-75
2022/06/06 00:35:58;;;;;;;4.88;3.25;;;18.60;99.90;;;;;;5132757;28;20039;-75
2022/06/06 00:38:24;;;;;;;5.95;2.90;;;18.50;99.90;;;;;;5131828;28;20050;-75
2022/06/06 00:40:50;;;;;;;5.35;3.08;;;18.50;99.90;;;;;;5114507;28;20456;-75
2022/06/06 00:43:18;;;;;;;4.85;3.00;;;18.50;99.90;;;;;;5132658;28;20027;-75
2022/06/06 00:45:47;;;;;;;3.42;2.97;;;18.40;99.90;;;;;;5116010;27;20080;-74
2022/06/06 00:48:18;;;;;;;7.97;3.25;;;18.40;99.90;;;;;;5118139;27;20384;-76
2022/06/06 00:50:54;;;;;;;4.72;3.20;;;18.40;99.90;;;;;;5117602;27;20029;-75
2022/06/06 00:53:32;;;;;;;8.52;3.28;;;18.40;99.90;;;;;;5117436;27;20031;-75
2022/06/06 00:56:04;;;;;;;4.85;2.92;;;18.40;99.90;;;;;;5136209;27;20073;-75
2022/06/06 00:58:33;;;;;;;3.25;2.95;;;18.30;99.90;;;;;;5135693;27;20030;-75
2022/06/06 01:00:59;;;;;;;5.10;2.97;;;18.30;99.90;;;;;;5117870;27;20379;-74
2022/06/06 01:03:27;;;;;;;6.63;3.13;;;18.30;99.90;;;;;;5117219;27;20019;-75
2022/06/06 01:05:55;;;;;;;5.25;3.38;;;18.30;99.90;;;;;;5135871;27;20357;-73
2022/06/06 01:08:21;;;;;;;4.15;3.05;;;18.20;99.90;;;;;;5117248;27;20030;-75
2022/06/06 01:10:47;;;;;;;3.75;3.15;;;18.30;99.90;;;;;;5117328;27;20028;-74
2022/06/06 01:13:15;;;;;;;4.18;2.92;;;18.30;99.90;;;;;;5117636;27;20154;-74
2022/06/06 01:15:49;;;;;;;6.85;3.40;;;18.20;99.90;;;;;;5134031;27;20027;-74
2022/06/06 01:18:28;;;;;;;4.38;3.25;;;18.30;99.90;;;;;;5134756;27;20399;-74
2022/06/06 01:20:57;;;;;;;7.10;3.50;;;18.30;99.90;;;;;;5134873;27;20113;-74
2022/06/06 01:23:46;;;;;;;5.07;3.33;;;18.30;99.90;;;;;;5133914;27;20349;-75
2022/06/06 01:26:43;;;;;;;4.07;3.20;;;18.30;99.90;;;;;;5134558;27;20541;-75
2022/06/06 01:29:24;;;;;;;4.95;2.90;;;18.20;99.90;;;;;;5134462;27;20475;-74
2022/06/06 01:31:55;;;;;;;;;;;18.20;99.90;;;;;;5135380;27;20073;-75
2022/06/06 01:34:24;;;;;;;5.30;2.97;;;18.20;99.90;;;;;;5135581;27;19910;-76
2022/06/06 01:36:53;;;;;;;5.28;3.15;;;18.20;99.90;;;;;;5134551;27;20035;-75
2022/06/06 01:39:20;;;;;;;4.22;3.10;;;18.20;99.90;;;;;;5134303;27;20027;-74
2022/06/06 01:42:09;;;;;;;3.60;3.08;;;18.20;99.90;;;;;;5134959;27;20045;-75
2022/06/06 01:44:38;;;;;;;4.03;3.10;;;18.10;99.90;;;;;;5134285;27;20031;-75
2022/06/06 01:47:07;;;;;;;6.50;3.40;;;18.10;99.90;;;;;;5135419;27;20027;-74
2022/06/06 01:49:34;;;;;;;3.78;2.95;;;18.10;99.90;;;;;;5133454;27;20135;-75
2022/06/06 01:52:09;;;;;;;4.47;3.58;;;18.10;99.90;;;;;;5135234;27;20090;-75
2022/06/06 01:54:35;;;;;;;6.47;3.45;;;18.00;99.90;;;;;;5134693;27;20029;-75
2022/06/06 01:57:03;;;;;;;6.68;3.40;;;18.00;99.90;;;;;;5133004;27;20387;-75
2022/06/06 01:59:29;;;;;;;4.65;3.25;;;17.90;99.90;;;;;;5132766;27;20034;-75
2022/06/06 02:01:55;;;;;;;8.27;4.45;;;18.00;99.90;;;;;;5134153;27;20059;-76
2022/06/06 02:04:21;;;;;;;10.25;3.75;;;17.90;99.90;;;;;;5133769;27;20487;-75
2022/06/06 02:06:47;;;;;;;4.57;3.60;;;17.90;99.90;;;;;;5133230;27;20031;-76
2022/06/06 02:09:13;;;;;;;5.88;3.38;;;17.90;99.90;;;;;;5133751;27;20513;-75
2022/06/06 02:11:39;;;;;;;4.65;3.47;;;17.90;99.90;;;;;;5134109;27;20027;-75
2022/06/06 02:14:06;;;;;;;5.15;3.42;;;17.90;99.90;;;;;;5134483;27;20039;-75
2022/06/06 02:16:32;;;;;;;4.90;3.15;;;17.90;99.90;;;;;;5115560;27;20119;-75
2022/06/06 02:18:58;;;;;;;7.93;3.42;;;17.90;99.90;;;;;;5115933;27;20122;-75
2022/06/06 02:21:24;;;;;;;4.30;3.17;;;17.90;99.90;;;;;;5115984;27;20023;-76
2022/06/06 02:23:49;;;;;;;4.45;3.38;;;17.90;99.90;;;;;;5115709;27;20118;-75
2022/06/06 02:26:16;;;;;;;5.82;3.45;;;17.80;99.90;;;;;;5134725;27;20058;-75
2022/06/06 02:28:42;;;;;;;5.22;3.60;;;17.70;99.90;;;;;;5133812;27;20159;-75
2022/06/06 02:31:08;;;;;;;7.13;3.40;;;17.80;99.90;;;;;;5115972;27;20076;-75
2022/06/06 02:33:35;;;;;;;7.53;3.40;;;17.70;99.90;;;;;;5115208;27;20023;-75
2022/06/06 02:36:01;;;;;;;6.57;3.45;;;17.70;99.90;;;;;;5134254;27;20115;-74
2022/06/06 02:38:28;;;;;;;6.07;3.60;;;17.60;99.90;;;;;;5115418;27;20486;-75
2022/06/06 02:40:54;;;;;;;8.20;4.00;;;17.60;99.90;;;;;;5115570;27;20122;-75
2022/06/06 02:43:21;;;;;;;5.13;3.55;;;17.60;99.90;;;;;;5134098;27;20468;-74
2022/06/06 02:45:50;;;;;;;5.78;3.20;;;17.60;99.90;;;;;;5133388;27;20019;-74
2022/06/06 02:48:16;;;;;;;6.18;3.10;;;17.60;99.90;;;;;;5134098;27;20106;-74
2022/06/06 02:50:42;;;;;;;5.55;3.40;;;17.60;99.90;;;;;;5115041;27;20360;-75
2022/06/06 02:53:09;;;;;;;6.93;3.30;;;17.70;99.90;;;;;;5115450;27;20516;-74
2022/06/06 02:55:35;;;;;;;6.38;3.30;;;17.70;99.90;;;;;;5114791;27;20031;-74
2022/06/06 02:58:02;;;;;;;7.38;3.53;;;17.60;99.90;;;;;;5115745;27;20027;-75
2022/06/06 03:00:31;;;;;;;5.45;3.33;;;17.60;99.90;;;;;;5133615;27;20023;-75
2022/06/06 03:02:58;;;;;;;6.63;3.58;;;17.70;99.90;;;;;;5115483;27;20019;-74
2022/06/06 03:05:46;;;;;;;7.72;3.47;;;17.70;99.90;;;;;;5133465;27;20027;-74
2022/06/06 03:08:17;;;;;;;5.00;3.28;;;17.70;99.90;;;;;;5132804;27;20421;-74
2022/06/06 03:11:06;;;;;;;5.25;3.50;;;17.70;99.90;;;;;;5114629;27;20050;-74
2022/06/06 03:13:46;;;;;;;6.38;3.70;;;17.80;99.90;;;;;;5117189;27;20075;-74
2022/06/06 03:23:00;;;;;;;6.07;3.40;;;17.80;99.90;;;;;;5133090;27;20042;-75
2022/06/06 03:26:08;;;;;;;5.20;3.22;;;17.80;99.90;;;;;;5133687;27;20114;-75
2022/06/06 03:28:51;;;;;;;4.05;3.15;;;17.80;99.90;;;;;;5132964;27;20063;-75
2022/06/06 03:31:23;;;;;;;6.63;3.45;;;17.80;99.90;;;;;;5132390;27;20031;-75
2022/06/06 03:34:21;;;;;;;6.60;3.60;;;17.90;99.90;;;;;;5132860;27;20101;-75
2022/06/06 03:36:52;;;;;;;6.15;3.40;;;17.90;99.90;;;;;;5059243;27;20048;-75
2022/06/06 03:39:50;;;;;;;6.40;3.55;;;17.90;99.90;;;;;;5133458;27;20068;-75
2022/06/06 03:42:33;;;;;;;4.07;3.35;;;17.90;99.90;;;;;;5118140;27;20031;-74
2022/06/06 03:45:01;;;;;;;4.63;3.63;;;17.90;99.90;;;;;;5132173;27;20038;-74
2022/06/06 03:47:30;;;;;;;9.93;3.53;;;17.90;99.90;;;;;;5133110;27;20493;-75
2022/06/06 03:50:22;;;;;;;6.43;4.03;;;17.90;99.90;;;;;;5132891;28;20034;-75
2022/06/06 03:53:08;;;;;;;7.15;3.65;;;17.90;99.90;;;;;;5131114;28;20019;-73
2022/06/06 03:56:02;;;;;;;6.97;3.55;;;17.90;99.90;;;;;;5131250;28;20195;-74
2022/06/06 03:58:31;;;;;;;6.28;3.42;;;17.90;99.90;;;;;;5132207;28;20019;-73
2022/06/06 04:01:00;;;;;;;6.55;3.58;;;18.00;99.90;;;;;;5133090;27;20059;-73
2022/06/06 04:03:27;;;;;;;4.63;3.35;;;18.00;99.90;;;;;;5131884;28;20067;-73
2022/06/06 04:05:54;;;;;;;3.85;3.10;;;18.00;99.90;;;;;;5131141;28;20587;-73
2022/06/06 04:08:20;;;;;;;5.90;3.55;;;18.00;99.90;;;;;;5131808;28;20023;-73
2022/06/06 04:11:09;;;;;;;5.75;3.47;;;18.00;99.90;;;;;;5132418;28;20452;-73
2022/06/06 04:13:48;;;;;;;5.20;3.00;;;18.10;99.90;;;;;;5130830;28;20403;-73
2022/06/06 04:16:13;;;;;;;4.68;3.40;;;18.10;99.90;;;;;;5132979;27;20028;-73
2022/06/06 04:18:51;;;;;;;4.90;3.55;;;18.10;99.90;;;;;;5132154;28;20371;-73
2022/06/06 04:21:31;;;;;;;4.88;3.22;;;18.10;99.90;;;;;;5136268;27;20027;-73
2022/06/06 04:24:06;;;;;;;6.55;3.75;;;18.10;99.90;;;;;;5135087;27;20027;-73
2022/06/06 04:26:52;;;;;;;5.20;3.28;;;18.10;99.90;;;;;;5135480;27;20054;-74
2022/06/06 04:29:44;;;;;;;4.47;3.60;;;18.10;99.90;;;;;;5135770;27;20019;-73
2022/06/06 04:32:42;;;;;;;5.65;3.33;;;18.10;99.90;;;;;;5135600;27;20029;-73
2022/06/06 04:35:26;;;;;;;7.82;3.65;;;18.10;99.90;;;;;;5135599;27;20067;-74
2022/06/06 04:38:21;;;;;;;8.18;4.68;;;18.10;99.90;;;;;;5134595;27;20623;-73
2022/06/06 04:41:11;;;;;;;5.75;3.30;;;18.10;99.90;;;;;;5134553;27;20458;-74
2022/06/06 04:44:05;;;;;;;5.78;3.40;;;18.10;99.90;;;;;;5135832;27;20032;-74
2022/06/06 04:46:45;;;;;;;6.05;3.72;;;18.10;99.90;;;;;;5133975;27;20043;-74
2022/06/06 04:49:11;;;;;;;4.43;3.60;;;18.10;99.90;;;;;;5135263;27;20027;-73
2022/06/06 04:51:40;;;;;;;5.50;3.58;;;18.10;99.90;;;;;;5134439;27;20422;-74
2022/06/06 04:54:10;;;;;;;6.10;3.90;;;18.10;99.90;;;;;;5134826;27;20536;-74
2022/06/06 04:56:37;;;;;;;8.30;4.22;;;18.10;99.90;;;;;;5135602;27;20031;-75
2022/06/06 04:59:04;;;;;;;7.53;3.45;;;18.10;99.90;;;;;;5135079;27;20399;-73
2022/06/06 05:01:29;;;;;;;6.50;3.03;;;18.10;99.90;;;;;;5135047;27;20027;-73
2022/06/06 05:03:55;;;;;;;4.38;3.53;;;18.20;99.90;;;;;;5135346;27;20023;-73
2022/06/06 05:06:46;;;;;;;5.57;3.63;;;18.20;99.90;;;;;;5134831;27;20050;-73
2022/06/06 05:09:22;;;;;;;6.60;3.72;;;18.20;99.90;;;;;;5134979;27;20027;-73
2022/06/06 05:12:13;;;;;;;5.30;3.38;;;18.20;99.90;;;;;;5134112;27;20026;-73
2022/06/06 05:14:55;;;;;;;5.93;3.53;;;18.20;99.90;;;;;;5133669;27;20047;-73
2022/06/06 05:17:30;;;;;;;5.28;3.80;;;18.20;99.90;;;;;;5136071;27;20166;-73
2022/06/06 05:20:21;;;;;;;6.57;3.50;;;18.20;99.90;;;;;;5135181;27;20030;-74
2022/06/06 05:23:07;;;;;;;6.53;3.22;;;18.20;99.90;;;;;;5133858;27;20084;-74
2022/06/06 05:26:09;;;;;;;8.48;3.17;;;18.30;99.90;;;;;;5134590;27;20111;-73
2022/06/06 05:28:58;;;;;;;6.43;3.50;;;18.30;99.90;;;;;;5135596;27;20026;-74
2022/06/06 05:31:36;;;;;;;5.10;3.30;;;18.20;99.90;;;;;;5134687;27;20019;-73
2022/06/06 05:34:17;;;;;;;6.00;3.63;;;18.20;99.90;;;;;;5133844;27;20027;-73
2022/06/06 05:37:15;;;;;;;5.10;3.83;;;18.30;99.90;;;;;;5134502;27;20429;-73
2022/06/06 05:40:07;;;;;;;5.78;3.22;;;18.30;99.90;;;;;;5134624;27;20118;-73
2022/06/06 05:42:55;;;;;;;9.60;3.70;;;18.30;99.90;;;;;;5134147;27;20524;-73
2022/06/06 05:45:38;;;;;;;6.53;3.42;;;18.40;99.90;;;;;;5134261;27;20027;-74
2022/06/06 05:48:15;;;;;;;4.35;3.30;;;18.40;99.90;;;;;;5135255;27;20072;-75
2022/06/06 05:51:11;;;;;;;8.02;3.28;;;18.40;99.90;;;;;;5134391;27;20047;-75
2022/06/06 05:53:40;;;;;;;10.43;3.58;;;18.50;99.90;;;;;;5133688;27;20094;-76
2022/06/06 05:56:18;;;;;;;6.90;3.47;;;18.50;99.90;;;;;;5134030;27;20162;-74
2022/06/06 05:59:22;;;;;;;7.32;3.28;;;18.50;99.90;;;;;;5134900;27;20083;-75
2022/06/06 06:02:05;;;;;;;6.93;3.63;;;18.50;99.90;;;;;;5103046;27;20027;-75
2022/06/06 06:04:59;;;;;;;5.45;3.47;;;18.50;99.90;;;;;;5134040;27;20034;-74
2022/06/06 06:07:42;;;;;;;7.47;3.67;;;18.60;99.90;;;;;;5135335;27;20027;-75
2022/06/06 06:10:30;;;;;;;5.43;3.47;;;18.50;99.90;;;;;;5134146;27;20029;-75
2022/06/06 06:13:14;;;;;;;6.22;3.55;;;18.50;99.90;;;;;;5132808;27;20480;-74
2022/06/06 06:15:42;;;;;;;4.28;3.65;;;18.50;99.90;;;;;;5134250;27;20034;-75
2022/06/06 06:18:28;;;;;;;7.20;3.88;;;18.50;99.90;;;;;;5116354;27;20036;-73
2022/06/06 06:21:01;;;;;;;5.88;3.47;;;18.50;99.90;;;;;;5134131;27;20042;-73
2022/06/06 06:23:32;;;;;;;5.88;4.03;;;18.60;99.90;;;;;;5116065;27;20027;-73
2022/06/06 06:26:00;;;;;;;;;;;18.60;99.90;;;;;;5134462;27;20223;-73
2022/06/06 06:28:28;;;;;;;6.40;3.47;;;18.60;99.90;;;;;;5116184;27;19907;-73
2022/06/06 06:30:59;;;;;;;5.82;3.85;;;18.70;99.90;;;;;;5115432;27;20219;-74
2022/06/06 06:33:33;;;;;;;6.13;3.60;;;18.70;99.90;;;;;;5116270;27;20030;-74
2022/06/06 06:36:35;;;;;;;6.60;3.92;;;18.80;99.90;;;;;;5133663;27;20035;-73
2022/06/06 06:39:17;;;;;;;5.53;3.50;;;18.80;99.90;;;;;;5115424;27;20494;-74
2022/06/06 06:42:02;;;;;;;4.88;3.38;;;18.90;99.90;;;;;;5115201;27;20065;-74
2022/06/06 06:44:33;;;;;;;5.15;3.67;;;19.00;99.90;;;;;;5115771;27;20030;-73
2022/06/06 06:47:08;;;;;;;8.90;4.07;;;19.00;99.90;;;;;;5114871;27;20122;-74
2022/06/06 06:49:40;;;;;;;6.00;3.22;;;19.10;99.90;;;;;;5134476;27;20019;-73
2022/06/06 06:52:21;;;;;;;7.15;3.95;;;19.20;99.90;;;;;;5115190;27;20468;-74
2022/06/06 06:55:02;;;;;;;7.88;3.83;;;19.30;99.90;;;;;;5133125;27;20072;-74
2022/06/06 06:58:03;;;;;;;5.43;3.40;;;19.40;99.90;;;;;;5134149;27;20201;-74
2022/06/06 07:00:39;;;;;;;6.25;3.35;;;19.40;99.90;;;;;;5061330;27;20122;-73
2022/06/06 07:09:25;;;;;;;4.90;2.85;;;19.30;99.90;;;;;;5112982;28;20034;-74
2022/06/06 07:12:19;;;;;;;7.10;3.35;;;19.40;99.90;;;;;;5094438;28;20110;-73
2022/06/06 07:15:16;;;;;;;5.63;2.85;;;19.30;99.90;;;;;;5107172;28;20044;-74
2022/06/06 07:17:51;;;;;;;5.03;2.88;;;19.20;99.90;;;;;;5112990;28;20038;-74
2022/06/06 07:20:18;;;;;;;3.65;2.47;;;19.20;99.90;;;;;;5112249;27;20024;-73
2022/06/06 07:23:04;;;;;;;4.40;2.83;;;19.20;99.90;;;;;;5112376;28;20368;-74
2022/06/06 07:25:40;;;;;;;3.00;2.70;;;19.20;99.90;;;;;;5111768;28;20131;-73
2022/06/06 07:28:08;;;;;;;3.47;3.10;;;19.10;99.90;;;;;;5111383;28;20030;-73
2022/06/06 07:30:38;;;;;;;5.90;2.88;;;19.10;99.90;;;;;;5115732;27;20034;-73
2022/06/06 07:33:16;;;;;;;6.18;3.58;;;19.10;99.90;;;;;;5133095;27;20080;-74
2022/06/06 07:35:44;;;;;;;4.35;3.10;;;19.10;99.90;;;;;;5132378;27;20104;-74
2022/06/06 07:38:32;;;;;;;5.15;3.00;;;19.10;99.90;;;;;;5133481;27;20094;-74
2022/06/06 07:41:21;;;;;;;4.50;3.10;;;19.10;99.90;;;;;;5131472;27;20027;-74
2022/06/06 07:44:20;;;;;;;6.50;3.10;;;19.10;99.90;;;;;;5131742;27;20027;-74
2022/06/06 07:47:11;;;;;;;6.10;3.58;;;19.00;99.90;;;;;;5131855;27;20027;-76
2022/06/06 07:50:03;;;;;;;6.47;3.10;;;19.10;99.90;;;;;;5130223;28;20383;-74
2022/06/06 07:52:43;;;;;;;5.35;2.88;;;19.00;99.90;;;;;;5120173;27;20068;-74
2022/06/06 07:55:34;;;;;;;6.20;3.20;;;19.10;99.90;;;;;;5103229;28;20480;-74
2022/06/06 07:58:17;;;;;;;5.20;2.80;;;19.10;99.90;;;;;;5106722;28;20024;-75
2022/06/06 08:00:49;;;;;;;6.07;3.20;;;19.10;99.90;;;;;;5116314;27;20376;-76
2022/06/06 08:03:23;;;;;;;3.47;2.92;;;19.20;99.90;;;;;;5109929;27;20024;-74
2022/06/06 08:06:20;;;;;;;6.20;3.25;;;19.20;99.90;;;;;;5102210;28;20077;-74
2022/06/06 08:08:55;;;;;;;7.90;3.83;;;19.30;99.90;;;;;;5123493;27;20024;-74
2022/06/06 08:11:55;;;;;;;6.65;3.38;;;19.30;99.90;;;;;;5105661;28;20028;-75
2022/06/06 08:14:57;;;;;;;4.32;3.25;;;19.40;99.90;;;;;;5102943;28;20369;-75
2022/06/06 08:17:46;;;;;;;5.03;2.47;;;19.50;99.90;;;;;;5106212;28;20023;-75
2022/06/06 08:20:27;;;;;;;4.80;2.65;;;19.50;99.90;;;;;;5105902;28;20481;-75
2022/06/06 08:22:57;;;;;;;3.95;2.15;;;19.60;99.90;;;;;;5104845;28;20024;-74
2022/06/06 08:25:23;;;;;;;3.40;2.83;;;19.70;99.90;;;;;;5104525;28;20036;-74
2022/06/06 08:27:51;;;;;;;3.05;2.17;;;19.70;99.90;;;;;;5104803;28;20028;-74
2022/06/06 08:30:19;;;;;;;4.47;3.10;;;19.80;99.90;;;;;;5104727;28;20031;-74
2022/06/06 08:32:47;;;;;;;4.47;2.67;;;19.90;99.90;;;;;;5104326;28;20499;-74
2022/06/06 08:35:13;;;;;;;2.85;2.40;;;19.90;99.90;;;;;;5104790;28;20110;-74
2022/06/06 08:37:41;;;;;;;2.22;1.73;;;19.90;99.90;;;;;;5106719;28;20384;-74
2022/06/06 08:40:31;;;;;;;3.67;2.08;;;20.00;99.90;;;;;;5105921;28;20039;-74
2022/06/06 08:43:28;;;;;;;2.22;2.00;;;20.00;99.90;;;;;;5103712;28;20059;-74
2022/06/06 08:46:19;;;;;;;3.35;1.90;;;20.10;99.90;;;;;;5103193;28;20552;-72
2022/06/06 08:50:44;;;;;;;4.22;2.17;;;20.20;99.90;;;;;;5102350;28;21281;-76
2022/06/06 08:52:25;;;;;;;4.40;2.55;;;20.30;99.90;;;;;;5104857;28;20060;-74
2022/06/06 08:54:54;;;;;;;7.07;3.65;;;20.30;99.90;;;;;;5108818;27;20028;-75
2022/06/06 08:58:30;;;;;;;2.60;2.08;;;20.40;99.90;;;;;;5116137;28;20498;-74
2022/06/06 09:01:34;;;;;;;2.83;2.17;;;20.50;99.90;;;;;;5023980;28;20037;-74
2022/06/06 09:04:34;;;;;;;4.90;2.10;;;20.50;99.90;;;;;;5006541;28;20761;-76
2022/06/06 09:07:32;;;;;;;3.25;1.90;;;20.60;99.90;;;;;;5090282;28;20131;-74
2022/06/06 09:10:00;;;;;;;2.45;1.70;;;20.80;99.90;;;;;;5094998;28;20494;-73
2022/06/06 09:12:44;;;;;;;2.53;1.90;;;20.80;99.90;;;;;;5134773;27;20023;-74
2022/06/06 09:15:30;;;;;;;2.28;1.70;;;20.90;99.90;;;;;;5111256;28;20511;-73
2022/06/06 09:18:29;;;;;;;2.03;1.38;;;20.90;99.90;;;;;;5115354;28;20023;-75
2022/06/06 09:21:26;;;;;;;5.22;1.98;;;21.00;99.50;;;;;;5114780;28;20027;-75
2022/06/06 09:24:06;;;;;;;7.95;2.00;;;21.10;99.40;;;;;;5096239;28;20027;-76
2022/06/06 09:26:38;;;;;;;3.65;1.35;;;21.30;99.40;;;;;;5096474;28;20126;-75
2022/06/06 09:29:16;;;;;;;3.08;1.30;;;21.40;98.60;;;;;;5114971;28;20027;-75
2022/06/06 09:32:20;;;;;;;1.70;1.40;;;21.40;98.60;;;;;;5124242;27;20030;-76
2022/06/06 09:35:28;;;;;;;4.55;1.80;;;21.30;98.10;;;;;;5099056;27;20019;-78
2022/06/06 09:38:15;;;;;;;3.67;1.70;;;21.30;98.50;;;;;;5098325;28;20036;-76
2022/06/06 09:40:57;;;;;;;2.88;2.22;;;21.30;98.40;;;;;;5097301;28;20016;-76
2022/06/06 09:43:56;;;;;;;7.00;3.25;;;21.30;98.30;;;;;;5089187;28;20044;-76
2022/06/06 09:46:46;;;;;;;3.58;1.55;;;21.20;98.40;;;;;;5082298;28;20426;-76
2022/06/06 09:49:39;;;;;;;3.60;2.25;;;21.20;98.30;;;;;;5114842;28;20031;-76
2022/06/06 09:52:53;;;;;;;4.78;1.83;;;21.20;98.50;;;;;;5114661;28;20275;-76
2022/06/06 09:59:04;;;;;;;3.55;1.90;;;21.10;99.10;;;;;;5101485;27;20062;-77
2022/06/06 10:01:58;;;;;;;2.65;1.92;;;20.90;99.90;;;;;;5096792;28;20036;-76
2022/06/06 10:04:45;;;;;;;3.53;1.90;;;20.80;99.90;;;;;;5082022;28;20030;-76
2022/06/06 10:07:38;;;;;;;3.47;2.45;;;20.70;99.90;;;;;;5113970;28;20063;-76
2022/06/06 10:10:16;;;;;;;3.35;2.17;;;20.50;99.90;;;;;;5113603;28;20024;-76
2022/06/06 10:13:07;;;;;;;6.22;2.33;;;20.50;99.90;;;;;;5098087;28;20035;-77
2022/06/06 10:15:46;;;;;;;2.72;2.10;;;20.40;99.90;;;;;;5087105;28;20082;-78
2022/06/06 10:18:28;;;;;;;3.53;2.30;;;20.30;99.90;;;;;;5085358;28;20472;-77
2022/06/06 10:21:15;;;;;;;3.28;2.17;;;20.30;99.90;;;;;;5111210;28;20028;-77
2022/06/06 10:23:53;;;;;;;4.00;2.20;;;20.30;99.90;;;;;;5090137;28;20028;-77
2022/06/06 10:26:25;;;;;;;2.45;1.92;;;20.30;99.90;;;;;;5088060;28;20046;-77
2022/06/06 10:28:58;;;;;;;4.80;1.92;;;20.30;99.90;;;;;;5103016;28;20461;-77
2022/06/06 10:32:15;;;;;;;2.97;1.98;;;20.30;99.90;;;;;;5090229;27;20024;-77
2022/06/06 10:34:43;;;;;;;3.92;2.17;;;20.40;99.90;;;;;;5067035;28;20043;-75
2022/06/06 10:37:33;;;;;;;2.42;1.90;;;20.50;99.90;;;;;;5094884;28;20511;-76
2022/06/06 10:40:20;;;;;;;2.35;1.75;;;20.60;99.90;;;;;;5095066;28;20039;-77
2022/06/06 10:43:00;;;;;;;2.70;1.67;;;20.70;99.90;;;;;;5093262;28;20061;-77
2022/06/06 10:45:48;;;;;;;3.25;1.52;;;20.90;99.90;;;;;;5075635;28;20024;-76
2022/06/06 10:48:35;;;;;;;2.70;1.63;;;21.10;99.90;;;;;;5075130;28;20458;-76
2022/06/06 10:54:36;;;;;;;3.15;2.33;;;21.40;99.40;;;;;;5112459;28;20050;-76
2022/06/06 10:57:36;;;;;;;6.10;2.17;;;21.40;99.80;;;;;;5083510;27;20400;-76
2022/06/06 11:00:29;;;;;;;4.45;1.77;;;21.40;99.80;;;;;;5121223;27;20031;-75
2022/06/06 11:03:42;;;;;;;2.63;1.58;;;21.50;99.30;;;;;;5104456;28;20024;-76
2022/06/06 11:06:44;;;;;;;2.78;1.85;;;21.50;99.10;;;;;;4993620;28;20084;-76
2022/06/06 11:09:47;;;;;;;4.63;1.77;;;21.40;99.00;;;;;;5104462;28;20024;-75
2022/06/06 11:12:25;;;;;;;3.25;1.60;;;21.30;99.10;;;;;;5078964;28;20129;-76
2022/06/06 11:14:53;;;;;;;3.67;1.75;;;21.20;99.50;;;;;;5102443;28;20181;-76
2022/06/06 11:17:41;;;;;;;3.40;1.80;;;21.20;99.40;;;;;;5112861;28;20552;-76
2022/06/06 11:20:18;;;;;;;1.50;1.30;;;21.20;99.90;;;;;;5095807;28;20019;-75
2022/06/06 11:23:07;;;;;;;2.65;1.40;;;21.20;99.90;;;;;;5103235;28;20066;-74
2022/06/06 11:26:05;;;;;;;2.40;1.67;;;21.20;99.90;;;;;;5112550;28;20032;-75
2022/06/06 11:29:09;;;;;;;5.30;1.90;;;21.20;99.90;;;;;;5099053;27;20024;-74
2022/06/06 11:31:39;;;;;;;2.40;1.30;;;21.30;99.90;;;;;;5088013;28;20467;-75
2022/06/06 11:34:23;;;;;;;3.28;1.85;;;21.30;99.90;;;;;;5089439;28;20376;-77
2022/06/06 11:36:54;;;;;;;2.03;1.50;;;21.20;99.90;;;;;;5094117;28;20031;-76
2022/06/06 11:39:54;;;;;;;2.97;1.70;;;21.30;99.90;;;;;;5091006;28;20023;-75
2022/06/06 11:42:56;;;;;;;3.03;1.52;;;21.60;99.90;;;;;;5091462;28;20027;-76
2022/06/06 11:45:59;;;;;;;1.63;1.33;;;21.80;99.90;;;;;;5090116;28;20407;-75
2022/06/06 11:48:47;;;;;;;4.18;1.40;;;21.80;98.90;;;;;;5091739;28;20460;-75
2022/06/06 11:51:36;;;;;;;3.58;1.65;;;22.00;99.10;;;;;;5091346;28;20165;-75
2022/06/06 11:54:31;;;;;;;1.70;1.60;;;22.20;98.60;;;;;;5092879;28;20132;-75
2022/06/06 11:57:27;;;;;;;1.95;1.40;;;22.30;96.80;;;;;;5071803;28;20484;-75
2022/06/06 11:59:55;;;;;;;1.90;1.00;;;22.30;95.50;;;;;;5112073;28;20523;-76
2022/06/06 12:02:36;;;;;;;3.08;1.30;;;22.40;95.30;;;;;;5091823;28;20118;-75
2022/06/06 12:05:37;;;;;;;3.13;1.10;;;22.50;94.30;;;;;;5091791;28;20032;-74
2022/06/06 12:08:08;;;;;;;1.93;0.93;;;22.70;93.90;;;;;;5040139;28;20028;-74
2022/06/06 12:10:50;;;;;;;1.90;1.20;;;22.80;94.00;;;;;;5094543;28;20077;-77
2022/06/06 12:13:41;;;;;;;2.58;1.20;;;22.60;92.90;;;;;;5095205;28;20395;-77
2022/06/06 12:16:24;;;;;;;4.17;1.20;;;22.40;93.60;;;;;;5110962;28;20547;-76
2022/06/06 12:19:04;;;;;;;1.73;1.20;;;22.40;93.80;;;;;;5112453;28;20492;-79
2022/06/06 12:21:55;;;;;;;2.20;1.40;;;22.40;94.00;;;;;;5112936;28;20461;-77
2022/06/06 12:24:38;;;;;;;4.68;1.70;;;22.50;93.90;;;;;;5119613;28;20076;-76
2022/06/06 12:27:18;;;;;;;1.95;1.70;;;22.60;93.50;;;;;;5111400;28;20031;-75
2022/06/06 12:30:11;;;;;;;2.17;1.70;;;22.70;93.40;;;;;;5111907;28;20107;-76
2022/06/06 12:32:58;;;;;;;3.17;1.27;;;22.90;93.20;;;;;;5108107;28;20043;-75
2022/06/06 12:35:50;;;;;;;3.67;1.38;;;23.00;92.80;;;;;;5105038;28;20127;-74
2022/06/06 12:38:56;;;;;;;3.05;1.30;;;23.20;93.10;;;;;;5112304;28;20022;-77
2022/06/06 12:42:08;;;;;;;2.65;1.40;;;23.20;92.90;;;;;;5113470;28;20024;-76
2022/06/06 12:45:28;;;;;;;1.52;1.20;;;23.30;92.60;;;;;;5098579;27;20460;-76
2022/06/06 12:48:05;;;;;;;1.55;1.30;;;23.30;92.80;;;;;;5032700;28;20113;-76
2022/06/06 12:50:37;;;;;;;2.40;1.20;;;23.40;92.20;;;;;;5115137;28;20039;-76
2022/06/06 12:53:15;;;;;;;2.85;1.90;;;23.50;92.10;;;;;;5113821;28;20476;-75
2022/06/06 12:56:17;;;;;;;1.50;1.05;;;23.70;91.00;;;;;;5115764;28;20061;-75
2022/06/06 12:58:49;;;;;;;1.90;1.10;;;23.90;90.70;;;;;;5102679;28;20031;-75
2022/06/06 13:01:38;;;;;;;1.52;1.17;;;24.00;89.50;;;;;;5117271;27;20042;-75
2022/06/06 13:04:30;;;;;;;2.05;1.30;;;24.20;89.20;;;;;;5114682;28;20048;-75
2022/06/06 13:07:39;;;;;;;1.40;1.10;;;24.10;87.20;;;;;;5111864;28;20028;-75
2022/06/06 13:10:24;;;;;;;2.05;1.05;;;23.90;86.40;;;;;;5106052;28;20027;-75
2022/06/06 13:13:28;;;;;;;2.17;1.40;;;23.90;88.40;;;;;;5109233;28;20020;-75
2022/06/06 13:16:36;;;;;;;1.48;1.30;;;24.00;89.50;;;;;;5096394;28;20081;-75
2022/06/06 13:19:41;;;;;;;1.50;1.10;;;23.60;87.90;;;;;;5096315;28;20024;-75
2022/06/06 13:22:38;;;;;;;1.70;1.08;;;23.20;89.10;;;;;;5079830;28;20107;-76
2022/06/06 13:25:17;;;;;;;2.10;1.13;;;22.90;90.70;;;;;;5095253;28;20047;-75
2022/06/06 13:27:59;;;;;;;1.27;1.17;;;22.70;91.50;;;;;;5115193;28;20032;-75
2022/06/06 13:30:35;;;;;;;2.50;1.10;;;22.60;91.40;;;;;;5096982;28;20030;-76
2022/06/06 13:33:09;;;;;;;1.83;1.25;;;22.40;91.80;;;;;;5114475;28;20028;-75
2022/06/06 13:36:04;;;;;;;2.35;1.33;;;22.30;91.80;;;;;;5096707;28;20039;-75
2022/06/06 13:38:44;;;;;;;1.63;1.40;;;22.20;92.20;;;;;;5083433;28;20039;-75
2022/06/06 13:41:18;;;;;;;2.80;1.27;;;22.10;92.90;;;;;;5095960;28;20039;-75
2022/06/06 13:44:02;;;;;;;3.42;1.50;;;22.00;94.00;;;;;;5085969;28;20111;-75
2022/06/06 13:46:53;;;;;;;4.28;1.50;;;22.10;94.80;;;;;;5096437;28;20020;-74
2022/06/06 13:49:49;;;;;;;2.10;1.20;;;22.20;95.30;;;;;;5096149;28;20394;-75
2022/06/06 13:52:38;;;;;;;1.80;1.25;;;22.30;95.60;;;;;;5095080;28;20019;-74
2022/06/06 13:55:31;;;;;;;2.25;1.13;;;22.50;95.80;;;;;;5094222;28;20038;-75
2022/06/06 13:58:20;;;;;;;3.05;1.40;;;22.60;95.60;;;;;;5095071;28;20023;-76
2022/06/06 14:01:23;;;;;;;5.32;1.40;;;22.70;95.00;;;;;;5095872;28;20035;-75
2022/06/06 14:04:04;;;;;;;1.33;0.90;;;22.80;94.70;;;;;;5095535;28;20200;-75
2022/06/06 14:06:50;;;;;;;3.65;0.80;;;22.90;93.60;;;;;;5114007;28;20476;-76
2022/06/06 14:09:17;;;;;;;1.05;0.73;;;23.00;90.60;;;;;;5095687;28;20024;-76
2022/06/06 14:11:45;;;;;;;1.33;0.55;;;22.90;90.40;;;;;;5114094;28;20116;-76
2022/06/06 14:14:16;;;;;;;0.80;0.57;;;22.90;89.50;;;;;;5103009;28;20542;-76
2022/06/06 14:16:47;;;;;;;0.90;0.80;;;22.80;87.10;;;;;;5114184;28;20040;-75
2022/06/06 14:19:48;;;;;;;2.58;0.60;;;22.80;87.50;;;;;;5113425;28;20253;-76
2022/06/06 14:22:32;;;;;;;2.28;0.70;;;22.80;86.30;;;;;;5089253;28;20035;-75